M I D A S
Marine Information and Data Acquisition System
Tripno 920 of the Zeeleeuw from 2005-06-23 06:25:49 to 2005-06-23 12:58:07
Back to CruiseResearch ActivitiesStationsMapUnderway DataData graphs

EquipmentUnitsComment
TimeDGPSUTC
LatitudeDGPSDM.mWGS84
LongitudeDGPSDM.mWGS84
HeadingGyrodeg 
SOGDGPSknotsSpeed over ground
COGDGPSdegCourse over ground
DepthEcho soundermeters200 kHz
Missing or incorrect values are displayed as -999
Navigation data collected by the RV Zeeleeuw from 2005-06-23 06:26:53 to 2005-06-23 13:07:03
Time Latitude Longitude Heading SOG COG Depth
2005-06-23 06:27:58 51°13.669 2°55.926 118.2 3.8 300 -999
2005-06-23 06:28:58 51°13.687 2°55.801 92.2 4.9 273 -999
2005-06-23 06:29:57 51°13.69 2°55.747 60.8 0.6 6 10.3
2005-06-23 06:30:57 51°13.715 2°55.757 359.1 0.1 198 -999
2005-06-23 06:31:57 51°13.733 2°55.733 326.6 3.2 322 9.3
2005-06-23 06:32:57 51°13.821 2°55.639 333.8 7.3 328 8.6
2005-06-23 06:33:57 51°13.95 2°55.545 340.9 8.6 336 9
2005-06-23 06:34:57 51°14.087 2°55.455 341.8 9.1 336 9.2
2005-06-23 06:35:57 51°14.222 2°55.323 326.1 9.9 322 9.5
2005-06-23 06:36:57 51°14.338 2°55.117 312.4 10.9 308 8.8
2005-06-23 06:37:57 51°14.476 2°54.887 322.2 13.1 313 8.8
2005-06-23 06:38:57 51°14.645 2°54.656 334.6 13.2 324 8.1
2005-06-23 06:39:57 51°14.821 2°54.442 328.7 13.4 319 7.9
2005-06-23 06:40:57 51°14.994 2°54.239 339.6 12.5 329 7
2005-06-23 06:41:57 51°15.161 2°54.036 327.9 13 316 7.4
2005-06-23 06:42:57 51°15.344 2°53.844 344.5 13.2 333 8.2
2005-06-23 06:43:56 51°15.528 2°53.655 337.6 13.6 328 9
2005-06-23 06:44:57 51°15.721 2°53.454 336 13.7 325 9.5
2005-06-23 06:45:57 51°15.913 2°53.248 336.5 13.8 325 10
2005-06-23 06:46:57 51°16.103 2°53.046 337.5 13.6 327 10.3
2005-06-23 06:47:57 51°16.294 2°52.853 339.2 13.6 328 10.7
2005-06-23 06:48:57 51°16.488 2°52.671 340.1 13.5 330 10.4
2005-06-23 06:49:57 51°16.687 2°52.508 346.2 13.1 338 8.8
2005-06-23 06:50:57 51°16.882 2°52.363 343.4 12.9 335 8.2
2005-06-23 06:51:57 51°17.08 2°52.226 344 13.1 336 8.7
2005-06-23 06:52:57 51°17.284 2°52.105 347.5 13.1 338 9.2
2005-06-23 06:53:57 51°17.482 2°51.968 340.8 13.2 328 9
2005-06-23 06:54:57 51°17.629 2°51.708 311.6 13.5 301 8.4
2005-06-23 06:55:57 51°17.731 2°51.39 309 13.6 300 8.5
2005-06-23 06:56:57 51°17.842 2°51.063 306.1 14 296 9.5
2005-06-23 06:57:57 51°17.954 2°50.729 306.8 14.3 297 11
2005-06-23 06:58:57 51°18.06 2°50.387 306.3 14.3 297 11.9
2005-06-23 06:59:57 51°18.165 2°50.045 306.3 14.4 296 12.6
2005-06-23 07:00:57 51°18.268 2°49.701 305.5 14.4 296 12.2
2005-06-23 07:01:57 51°18.371 2°49.359 305.6 14.2 296 10.2
2005-06-23 07:02:57 51°18.477 2°49.023 306.6 14.3 297 9.2
2005-06-23 07:03:57 51°18.586 2°48.683 308.4 14.6 298 9.5
2005-06-23 07:04:57 51°18.685 2°48.326 302.3 14.7 293 11.8
2005-06-23 07:05:57 51°18.782 2°47.97 302.2 14.5 293 14.1
2005-06-23 07:06:57 51°18.877 2°47.616 302.7 14.5 293 17
2005-06-23 07:07:57 51°18.971 2°47.266 302.9 14.4 293 18.1
2005-06-23 07:08:57 51°19.066 2°46.914 302 14.5 293 19.7
2005-06-23 07:09:57 51°19.162 2°46.555 302.9 14.6 293 20
2005-06-23 07:10:57 51°19.257 2°46.199 302.9 14.6 293 19
2005-06-23 07:11:57 51°19.353 2°45.842 304.2 14.6 294 15.7
2005-06-23 07:12:57 51°19.451 2°45.487 303.4 14.6 293 11.1
2005-06-23 07:13:57 51°19.547 2°45.127 299.7 15 291 13.8
2005-06-23 07:14:57 51°19.633 2°44.76 298.6 14.6 290 20.4
2005-06-23 07:15:56 51°19.714 2°44.403 298.2 14.6 289 21.8
2005-06-23 07:16:57 51°19.803 2°44.031 300.2 14.6 291 22.2
2005-06-23 07:17:57 51°19.89 2°43.672 301.3 14.5 292 24
2005-06-23 07:18:57 51°19.98 2°43.313 301.5 14.6 292 24.9
2005-06-23 07:19:57 51°20.07 2°42.954 301.2 14.5 292 24.8
2005-06-23 07:20:57 51°20.154 2°42.591 297.3 14.7 287 22.4
2005-06-23 07:21:57 51°20.225 2°42.217 295.8 14.7 287 19
2005-06-23 07:22:57 51°20.298 2°41.841 295.9 14.9 287 16.7
2005-06-23 07:23:57 51°20.373 2°41.466 296.8 14.7 288 19.7
2005-06-23 07:24:57 51°20.42 2°41.087 286.5 14.6 279 24.7
2005-06-23 07:25:57 51°20.456 2°40.703 286.1 14.5 278 26.7
2005-06-23 07:26:57 51°20.492 2°40.32 286.8 14.6 278 25.6
2005-06-23 07:27:57 51°20.528 2°39.932 286.6 14.8 278 25.9
2005-06-23 07:28:57 51°20.565 2°39.541 287.5 14.9 279 23.8
2005-06-23 07:29:57 51°20.602 2°39.155 286.6 14.8 278 22.7
2005-06-23 07:30:57 51°20.637 2°38.762 286.5 14.8 278 23.4
2005-06-23 07:31:57 51°20.667 2°38.371 285.1 14.9 277 22.6
2005-06-23 07:32:57 51°20.697 2°37.978 285.2 15 277 21.6
2005-06-23 07:33:57 51°20.729 2°37.58 285.2 15.1 277 22.4
2005-06-23 07:34:57 51°20.76 2°37.185 285 15.1 277 22.2
2005-06-23 07:35:58 51°20.79 2°36.779 286.4 15.1 277 20.9
2005-06-23 07:36:57 51°20.818 2°36.384 285.5 15.1 276 21.6
2005-06-23 07:37:57 51°20.862 2°35.991 289.9 15 281 24.6
2005-06-23 07:38:57 51°20.906 2°35.599 289.2 14.9 280 27.3
2005-06-23 07:39:57 51°20.948 2°35.208 289.9 14.9 280 29.2
2005-06-23 07:40:57 51°20.991 2°34.817 289.3 15 280 29.4
2005-06-23 07:41:57 51°21.032 2°34.422 289 15 279 29.8
2005-06-23 07:42:57 51°21.109 2°34.055 311.9 14.2 302 29.2
2005-06-23 07:43:57 51°21.275 2°33.8 328.7 14 315 31.6
2005-06-23 07:44:58 51°21.442 2°33.533 328.1 14.1 315 29.4
2005-06-23 07:45:57 51°21.606 2°33.276 328.3 13.9 316 23.3
2005-06-23 07:46:57 51°21.772 2°33.02 328.9 13.9 317 21.3
2005-06-23 07:47:57 51°21.94 2°32.765 329.1 14 317 26.4
2005-06-23 07:48:57 51°22.109 2°32.508 328.7 14.1 317 29.7
2005-06-23 07:49:57 51°22.278 2°32.247 328.6 14.1 315 31.1
2005-06-23 07:50:57 51°22.391 2°31.911 299.4 14.9 289 30.1
2005-06-23 07:51:58 51°22.465 2°31.521 296.4 15 286 30
2005-06-23 07:52:57 51°22.514 2°31.135 285.9 15.2 277 29.4
2005-06-23 07:53:57 51°22.541 2°30.735 285.2 15.1 276 29.7
2005-06-23 07:54:57 51°22.542 2°30.33 277.5 15.2 270 30.9
2005-06-23 07:55:58 51°22.539 2°29.922 277.9 15.2 270 31
2005-06-23 07:56:57 51°22.538 2°29.52 278.1 15.2 271 31.7
2005-06-23 07:57:57 51°22.539 2°29.115 278.7 15.2 271 32.3
2005-06-23 07:58:57 51°22.539 2°28.711 278.7 15.4 270 32.5
2005-06-23 07:59:57 51°22.539 2°28.299 279.1 15.4 270 32.5
2005-06-23 08:00:57 51°22.539 2°27.888 279.2 15.5 270 32.4
2005-06-23 08:01:57 51°22.54 2°27.478 279.6 15.4 270 34.4
2005-06-23 08:02:57 51°22.54 2°27.067 279.2 15.4 270 32.9
2005-06-23 08:03:57 51°22.538 2°26.661 279.5 15.4 270 32.5
2005-06-23 08:04:57 51°22.546 2°26.25 286.4 15.2 276 29.9
2005-06-23 08:05:57 51°22.606 2°25.866 301.6 14.7 290 23.7
2005-06-23 08:06:57 51°22.744 2°25.573 333.3 13.5 320 18.5
2005-06-23 08:07:57 51°22.94 2°25.442 358.1 12.7 347 27.1
2005-06-23 08:08:56 51°23.144 2°25.391 2.7 12.5 350 31.3
2005-06-23 08:09:57 51°23.352 2°25.359 11.6 12.3 -999 32.3
2005-06-23 08:10:57 51°23.556 2°25.365 12.3 12.3 1 32.2
2005-06-23 08:11:57 51°23.76 2°25.365 10.9 12.2 -999 32.3
2005-06-23 08:12:57 51°23.96 2°25.363 10.2 12.1 359 32.8
2005-06-23 08:13:57 51°24.162 2°25.357 10 12 359 33.4
2005-06-23 08:14:57 51°24.361 2°25.356 14.1 11.8 2 33.1
2005-06-23 08:15:57 51°24.557 2°25.373 14.4 11.8 3 32.6
2005-06-23 08:16:57 51°24.751 2°25.388 14.5 11.7 2 34.4
2005-06-23 08:17:57 51°24.942 2°25.402 14.6 11.6 3 33.6
2005-06-23 08:18:58 51°25.138 2°25.416 14.1 11.6 2 33.8
2005-06-23 08:19:57 51°25.33 2°25.426 13.7 11.7 -999 32.9
2005-06-23 08:20:57 51°25.525 2°25.44 13.8 11.8 4 30.3
2005-06-23 08:21:57 51°25.721 2°25.45 14 11.8 2 26
2005-06-23 08:22:58 51°25.917 2°25.46 14.9 11.7 3 25.3
2005-06-23 08:23:57 51°26.111 2°25.474 14.1 11.8 2 25.1
2005-06-23 08:24:57 51°26.307 2°25.489 14.1 11.8 2 29
2005-06-23 08:25:57 51°26.503 2°25.506 14.3 11.8 3 32.8
2005-06-23 08:26:57 51°26.699 2°25.522 14.5 11.8 3 33.2
2005-06-23 08:27:57 51°26.896 2°25.539 14.3 11.8 2 33.7
2005-06-23 08:28:57 51°27.092 2°25.556 14.5 11.8 3 33.6
2005-06-23 08:29:57 51°27.287 2°25.581 14.5 11.8 4 33.9
2005-06-23 08:30:57 51°27.483 2°25.589 9.9 11.8 358 34.3
2005-06-23 08:31:57 51°27.68 2°25.579 9.3 11.9 358 34.4
2005-06-23 08:32:58 51°27.878 2°25.571 8.7 11.8 359 34.3
2005-06-23 08:33:57 51°28.073 2°25.558 7.4 11.9 357 34.9
2005-06-23 08:34:57 51°28.27 2°25.539 6.8 11.9 356 35.8
2005-06-23 08:35:57 51°28.467 2°25.522 7.5 11.9 358 35.6
2005-06-23 08:36:57 51°28.666 2°25.506 6.8 11.9 356 31.4
2005-06-23 08:37:57 51°28.862 2°25.491 7.4 11.8 357 33.1
2005-06-23 08:38:57 51°29.058 2°25.478 6.7 11.9 357 31.4
2005-06-23 08:39:57 51°29.255 2°25.467 6 11.9 357 24.6
2005-06-23 08:40:57 51°29.452 2°25.46 7.6 11.9 359 28.2
2005-06-23 08:41:57 51°29.65 2°25.455 7.8 12 359 26.9
2005-06-23 08:42:57 51°29.85 2°25.45 6.7 11.9 359 31.2
2005-06-23 08:43:57 51°30.048 2°25.442 5.9 11.9 359 31.2
2005-06-23 08:44:57 51°30.246 2°25.427 6.1 11.8 357 32.7
2005-06-23 08:45:57 51°30.438 2°25.441 18.8 11.4 11 35.5
2005-06-23 08:46:57 51°30.623 2°25.502 20.7 11.5 12 38
2005-06-23 08:47:57 51°30.81 2°25.562 20.1 11.3 11 39.1
2005-06-23 08:48:58 51°30.998 2°25.622 19.5 11.6 11 39.5
2005-06-23 08:49:57 51°31.173 2°25.731 31.2 11.3 26 40.2
2005-06-23 08:50:57 51°31.344 2°25.872 34.6 11.6 31 40
2005-06-23 08:51:57 51°31.511 2°26.019 33.8 11.4 30 39.1
2005-06-23 08:52:57 51°31.679 2°26.169 33 11.5 28 39.9
2005-06-23 08:53:57 51°31.848 2°26.315 34.1 11.5 28 39.9
2005-06-23 08:54:57 51°32.016 2°26.461 32.8 11.5 29 38.4
2005-06-23 08:55:57 51°32.184 2°26.606 33.9 11.4 29 38.2
2005-06-23 08:56:57 51°32.352 2°26.751 33.6 11.5 29 38.3
2005-06-23 08:57:57 51°32.523 2°26.899 34.5 11.6 29 38.4
2005-06-23 08:58:57 51°32.692 2°27.043 34.1 11.5 28 37.6
2005-06-23 08:59:57 51°32.863 2°27.188 33.3 11.6 29 37.7
2005-06-23 09:00:57 51°33.033 2°27.333 33.4 11.5 28 37.5
2005-06-23 09:01:57 51°33.203 2°27.478 33.5 11.5 28 35.7
2005-06-23 09:02:57 51°33.373 2°27.623 32.7 11.7 28 36.5
2005-06-23 09:03:57 51°33.545 2°27.769 33.1 11.6 28 36.8
2005-06-23 09:04:57 51°33.715 2°27.915 33.5 11.7 29 37.6
2005-06-23 09:05:57 51°33.887 2°28.062 32.8 11.7 28 36.9
2005-06-23 09:06:57 51°34.058 2°28.209 33.3 11.7 29 36.1
2005-06-23 09:07:57 51°34.229 2°28.356 33.3 11.6 28 35.1
2005-06-23 09:08:58 51°34.4 2°28.507 34.7 11.5 29 35.1
2005-06-23 09:09:57 51°34.566 2°28.659 34.5 11.5 29 35.7
2005-06-23 09:10:57 51°34.735 2°28.809 34.1 11.5 28 36.2
2005-06-23 09:11:57 51°34.902 2°28.959 35.1 11.5 30 34.9
2005-06-23 09:12:57 51°35.07 2°29.109 34.8 11.4 30 33.8
2005-06-23 09:13:57 51°35.238 2°29.259 34.1 11.5 29 33.7
2005-06-23 09:14:57 51°35.402 2°29.404 33.7 11.4 28 31.9
2005-06-23 09:15:58 51°35.567 2°29.553 34.5 11.2 29 37.3
2005-06-23 09:16:57 51°35.73 2°29.702 33.7 11.4 29 35.9
2005-06-23 09:17:57 51°35.896 2°29.85 33.7 11.4 29 35.5
2005-06-23 09:18:57 51°36.061 2°30 33.9 11.3 29 35.6
2005-06-23 09:19:57 51°36.224 2°30.15 34.6 11.5 30 36.7
2005-06-23 09:20:57 51°36.387 2°30.302 35 11.2 30 36.8
2005-06-23 09:21:58 51°36.553 2°30.453 33.5 11.4 29 34.9
2005-06-23 09:22:58 51°36.716 2°30.602 33.5 11.5 28 36
2005-06-23 09:23:57 51°36.878 2°30.751 34.2 11.3 29 36.4
2005-06-23 09:24:57 51°37.043 2°30.901 33.7 11.3 30 37.2
2005-06-23 09:25:57 51°37.206 2°31.05 33.6 11.4 30 37.5
2005-06-23 09:26:58 51°37.371 2°31.203 34.1 11.3 30 37.7
2005-06-23 09:27:58 51°37.534 2°31.352 34.5 11.3 30 37.3
2005-06-23 09:28:57 51°37.698 2°31.5 32.6 11.3 26 38.5
2005-06-23 09:29:57 51°37.87 2°31.621 28.7 11.4 22 40.3
2005-06-23 09:30:57 51°38.045 2°31.741 28.3 11.5 23 40
2005-06-23 09:31:57 51°38.219 2°31.865 29.3 11.4 24 40
2005-06-23 09:32:57 51°38.394 2°31.987 28.4 11.5 23 41.2
2005-06-23 09:33:58 51°38.571 2°32.112 29.7 11.5 25 40.2
2005-06-23 09:34:57 51°38.744 2°32.236 29.7 11.5 24 40.3
2005-06-23 09:35:58 51°38.92 2°32.36 29.1 11.5 24 40.7
2005-06-23 09:36:57 51°39.083 2°32.513 45.4 11.6 48 41.2
2005-06-23 09:37:58 51°39.194 2°32.774 56.8 11.7 56 39.9
2005-06-23 09:38:57 51°39.327 2°32.997 47.4 11.7 45 39.9
2005-06-23 09:39:57 51°39.463 2°33.22 47.9 11.7 46 42.5
2005-06-23 09:40:58 51°39.599 2°33.447 48.6 11.7 46 43.2
2005-06-23 09:41:57 51°39.733 2°33.672 48.2 11.8 46 43.8
2005-06-23 09:42:57 51°39.871 2°33.902 48.8 12 46 42.5
2005-06-23 09:43:57 51°40.007 2°34.131 48.5 11.7 47 38.4
2005-06-23 09:44:58 51°40.144 2°34.36 48.3 11.8 46 38.2
2005-06-23 09:45:58 51°40.279 2°34.59 49.3 11.8 47 36.5
2005-06-23 09:46:58 51°40.415 2°34.819 49.6 11.8 47 37.4
2005-06-23 09:47:58 51°40.55 2°35.048 49.3 11.8 47 33.8
2005-06-23 09:48:57 51°40.683 2°35.278 49.7 11.8 47 33.2
2005-06-23 09:49:58 51°40.802 2°35.528 65.3 11.8 71 28.3
2005-06-23 09:50:58 51°40.841 2°35.843 79.3 12.1 81 25.5
2005-06-23 09:51:57 51°40.874 2°36.158 79.2 11.9 80 22.8
2005-06-23 09:52:58 51°40.877 2°36.483 89.2 12.1 91 23.3
2005-06-23 09:53:57 51°40.86 2°36.811 92.8 12.6 96 32.7
2005-06-23 09:54:57 51°40.823 2°37.147 100.4 12.9 105 37
2005-06-23 09:55:57 51°40.75 2°37.472 113.4 13.2 120 39
2005-06-23 09:56:57 51°40.637 2°37.78 115.9 13.4 121 40
2005-06-23 09:57:57 51°40.527 2°38.091 114.4 13.3 119 41.3
2005-06-23 09:58:57 51°40.419 2°38.403 114.6 13.3 118 39.9
2005-06-23 09:59:57 51°40.311 2°38.713 114.6 13.2 119 41.3
2005-06-23 10:00:58 51°40.204 2°39.026 114.6 13.3 119 37.7
2005-06-23 10:01:58 51°40.1 2°39.338 113.8 13.3 118 43.2
2005-06-23 10:02:58 51°39.997 2°39.65 113.9 13.2 117 38.9
2005-06-23 10:03:57 51°39.895 2°39.959 115.1 13.3 118 39.8
2005-06-23 10:04:57 51°39.789 2°40.268 117.8 13.3 122 33.8
2005-06-23 10:05:57 51°39.667 2°40.566 119.5 13.4 124 35.8
2005-06-23 10:06:57 51°39.546 2°40.866 118.9 13.3 123 29.5
2005-06-23 10:07:58 51°39.425 2°41.166 119.5 13.2 122 30.6
2005-06-23 10:08:57 51°39.304 2°41.456 119 13.1 124 21.4
2005-06-23 10:09:57 51°39.185 2°41.752 119.7 13.3 123 25.1
2005-06-23 10:10:57 51°39.064 2°42.051 119.7 13.3 123 26.8
2005-06-23 10:11:57 51°38.869 2°42.215 172.7 14.4 177 29.2
2005-06-23 10:12:58 51°38.622 2°42.193 186 14.8 187 30.7
2005-06-23 10:13:57 51°38.38 2°42.142 187.9 14.8 188 30.7
2005-06-23 10:14:58 51°38.132 2°42.085 189.4 14.9 190 33.2
2005-06-23 10:15:57 51°37.888 2°42.026 188.3 15 189 32.8
2005-06-23 10:16:57 51°37.642 2°41.966 188.3 15 189 32.1
2005-06-23 10:17:57 51°37.458 2°41.724 245 14.5 242 28.9
2005-06-23 10:18:57 51°37.404 2°41.345 268.5 14.7 260 19.7
2005-06-23 10:19:57 51°37.38 2°40.958 278.6 14.4 269 22.1
2005-06-23 10:20:58 51°37.395 2°40.573 284 14.3 274 22.1
2005-06-23 10:21:57 51°37.416 2°40.198 283.7 14.2 275 29.5
2005-06-23 10:22:57 51°37.432 2°39.821 283 14.1 273 35.3
2005-06-23 10:23:58 51°37.45 2°39.442 283.3 14.2 274 39.5
2005-06-23 10:24:57 51°37.467 2°39.067 283.9 14.2 274 40.7
2005-06-23 10:25:57 51°37.482 2°38.688 283.4 14.2 274 41.6
2005-06-23 10:26:57 51°37.499 2°38.311 283.5 14 274 38.5
2005-06-23 10:27:57 51°37.516 2°37.938 282.8 14.1 274 38.3
2005-06-23 10:28:57 51°37.533 2°37.564 282.6 14 274 39.6
2005-06-23 10:29:58 51°37.55 2°37.187 283.1 14 275 38.8
2005-06-23 10:30:57 51°37.566 2°36.816 282.9 14 274 41.1
2005-06-23 10:31:58 51°37.581 2°36.438 283.4 14.1 274 40.1
2005-06-23 10:32:57 51°37.597 2°36.066 282.7 14.1 273 39.3
2005-06-23 10:33:57 51°37.607 2°35.687 279.9 14.3 271 37.6
2005-06-23 10:34:57 51°37.608 2°35.307 279.4 14.2 270 35.5
2005-06-23 10:35:58 51°37.606 2°34.924 277.4 14.3 269 29.1
2005-06-23 10:36:57 51°37.597 2°34.547 275.1 14.3 267 16.6
2005-06-23 10:37:57 51°37.524 2°34.186 243.9 14.4 239 27.5
2005-06-23 10:38:57 51°37.322 2°33.991 200.4 14.5 200 28.7
2005-06-23 10:39:57 51°37.094 2°33.864 200.2 14.5 199 31.3
2005-06-23 10:40:57 51°36.867 2°33.73 200.7 14.5 200 29.7
2005-06-23 10:41:57 51°36.642 2°33.59 201.9 14.5 202 33.2
2005-06-23 10:42:57 51°36.418 2°33.446 202.5 14.5 202 34.3
2005-06-23 10:43:57 51°36.193 2°33.3 202.6 14.6 202 35.5
2005-06-23 10:44:57 51°35.97 2°33.151 204 14.6 203 35.9
2005-06-23 10:45:57 51°35.748 2°33.002 203.8 14.6 203 37.2
2005-06-23 10:46:58 51°35.525 2°32.853 203.9 14.4 202 37
2005-06-23 10:47:57 51°35.303 2°32.71 202.2 14.6 200 37.7
2005-06-23 10:48:57 51°35.078 2°32.573 201.8 14.4 200 37.4
2005-06-23 10:49:58 51°34.853 2°32.436 201.5 14.4 199 35.9
2005-06-23 10:50:57 51°34.629 2°32.302 202.2 14.5 200 34.3
2005-06-23 10:51:57 51°34.408 2°32.162 204.1 14.3 202 34.3
2005-06-23 10:52:57 51°34.187 2°32.016 204.1 14.3 202 30.7
2005-06-23 10:53:58 51°33.966 2°31.87 204.5 14.4 202 31.6
2005-06-23 10:54:58 51°33.747 2°31.726 204.1 14.3 202 32.4
2005-06-23 10:55:58 51°33.527 2°31.582 204.6 14.3 203 32.9
2005-06-23 10:56:58 51°33.308 2°31.435 204 14.3 202 30
2005-06-23 10:57:57 51°33.09 2°31.293 204.6 14.3 202 27.6
2005-06-23 10:58:58 51°32.865 2°31.163 199.7 14.4 198 23.8
2005-06-23 10:59:58 51°32.638 2°31.054 198.8 14.1 196 24.6
2005-06-23 11:00:58 51°32.403 2°31.05 176.5 14.2 179 27.4
2005-06-23 11:01:57 51°32.177 2°31.131 163.5 14 163 25.5
2005-06-23 11:02:58 51°31.953 2°31.258 158.6 14.2 159 30.3
2005-06-23 11:03:58 51°31.737 2°31.402 153.8 14.1 154 31.9
2005-06-23 11:04:58 51°31.529 2°31.574 152.4 14 152 35.7
2005-06-23 11:05:58 51°31.322 2°31.745 153.1 14 152 37
2005-06-23 11:06:57 51°31.117 2°31.911 153.1 13.8 153 37.4
2005-06-23 11:07:58 51°30.907 2°32.076 154.3 13.9 155 36.3
2005-06-23 11:08:58 51°30.699 2°32.237 154.2 13.9 154 35.9
2005-06-23 11:09:57 51°30.497 2°32.407 149.7 13.8 148 33.2
2005-06-23 11:10:58 51°30.302 2°32.606 148.4 13.8 148 29.1
2005-06-23 11:11:58 51°30.113 2°32.819 143.6 13.9 142 25
2005-06-23 11:12:57 51°29.941 2°33.058 134.6 13.8 132 25
2005-06-23 11:13:58 51°29.792 2°33.343 130.4 13.9 129 20.1
2005-06-23 11:14:58 51°29.733 2°33.697 99.4 13.9 98 14.5
2005-06-23 11:15:58 51°29.699 2°34.064 98.3 13.9 99 29.9
2005-06-23 11:16:58 51°29.661 2°34.424 98.8 13.6 100 39.5
2005-06-23 11:17:57 51°29.627 2°34.778 97.9 13.6 99 40.3
2005-06-23 11:18:57 51°29.592 2°35.135 99 13.6 99 40.5
2005-06-23 11:19:58 51°29.557 2°35.497 99 13.7 98 38.7
2005-06-23 11:20:58 51°29.523 2°35.859 99.4 13.8 99 35.9
2005-06-23 11:21:57 51°29.488 2°36.219 99.5 13.8 99 32.9
2005-06-23 11:22:58 51°29.454 2°36.585 99.1 13.9 99 31.1
2005-06-23 11:23:58 51°29.42 2°36.952 99.6 13.9 99 27.8
2005-06-23 11:24:58 51°29.382 2°37.317 100.6 13.9 104 35.3
2005-06-23 11:25:58 51°29.272 2°37.638 125.2 13.8 126 39
2005-06-23 11:26:57 51°29.12 2°37.914 131.6 14 132 38.4
2005-06-23 11:27:57 51°28.944 2°38.155 145.8 14 145 38
2005-06-23 11:28:58 51°28.748 2°38.357 152.2 13.9 150 39.8
2005-06-23 11:29:58 51°28.534 2°38.502 158.7 13.9 157 41.3
2005-06-23 11:30:57 51°28.322 2°38.638 163.1 13.8 161 38.5
2005-06-23 11:31:58 51°28.106 2°38.764 162.6 13.7 159 37
2005-06-23 11:32:57 51°27.892 2°38.872 166.8 13.6 163 35.5
2005-06-23 11:33:58 51°27.671 2°38.973 169.6 13.7 165 34.7
2005-06-23 11:34:58 51°27.45 2°39.069 169.5 13.9 166 35.5
2005-06-23 11:35:58 51°27.228 2°39.162 169.2 13.8 166 36
2005-06-23 11:36:57 51°27.01 2°39.267 166.5 13.8 162 35
2005-06-23 11:37:57 51°26.791 2°39.382 166.2 13.8 162 34.3
2005-06-23 11:38:58 51°26.572 2°39.498 166.3 13.7 162 36
2005-06-23 11:39:58 51°26.361 2°39.634 161.1 13.5 157 35.2
2005-06-23 11:40:58 51°26.158 2°39.773 161.2 13.2 157 33.4
2005-06-23 11:41:58 51°25.956 2°39.913 160.7 13.2 156 33.3
2005-06-23 11:42:57 51°25.755 2°40.049 161 13.2 157 32.7
2005-06-23 11:43:58 51°25.55 2°40.191 160.8 13.4 157 31.4
2005-06-23 11:44:58 51°25.34 2°40.307 165.5 13.4 161 30.1
2005-06-23 11:45:58 51°25.132 2°40.422 165.2 13.2 161 30.6
2005-06-23 11:46:58 51°24.923 2°40.535 165.5 13.3 161 29
2005-06-23 11:47:58 51°24.711 2°40.61 180.8 13 177 26.7
2005-06-23 11:48:58 51°24.493 2°40.616 183.8 13.1 179 27
2005-06-23 11:49:58 51°24.275 2°40.624 183.2 13.1 178 26.1
2005-06-23 11:50:58 51°24.058 2°40.638 182.5 13.1 177 31.3
2005-06-23 11:51:58 51°23.84 2°40.654 182.2 13.1 177 31.6
2005-06-23 11:52:58 51°23.623 2°40.667 184.5 12.9 179 31.4
2005-06-23 11:53:58 51°23.412 2°40.675 183.1 12.7 178 31.4
2005-06-23 11:54:57 51°23.204 2°40.684 182.5 12.5 178 32
2005-06-23 11:55:57 51°22.994 2°40.696 182.9 12.7 179 31.8
2005-06-23 11:56:58 51°22.781 2°40.71 182.6 12.6 178 31.9
2005-06-23 11:57:58 51°22.57 2°40.728 179.1 12.7 175 32.2
2005-06-23 11:58:58 51°22.359 2°40.762 179.2 12.7 175 31.7
2005-06-23 11:59:58 51°22.148 2°40.807 175.7 12.8 170 30.4
2005-06-23 12:00:58 51°21.939 2°40.873 174.3 12.8 168 30.5
2005-06-23 12:01:58 51°21.731 2°40.951 170.4 12.9 162 27.5
2005-06-23 12:02:58 51°21.54 2°41.109 154.3 13.1 146 30.1
2005-06-23 12:03:58 51°21.357 2°41.301 153.8 13.1 148 27.4
2005-06-23 12:04:58 51°21.174 2°41.49 154.4 13.2 147 27.5
2005-06-23 12:05:58 51°20.989 2°41.684 154.5 13.4 147 29.5
2005-06-23 12:06:57 51°20.823 2°41.913 143.5 13.4 135 24.8
2005-06-23 12:07:58 51°20.678 2°42.192 133.4 13.9 125 22.4
2005-06-23 12:08:58 51°20.546 2°42.487 134.3 13.3 126 22.8
2005-06-23 12:09:58 51°20.437 2°42.792 122.4 13.4 112 26.2
2005-06-23 12:10:58 51°20.342 2°43.116 126.8 13.3 118 28.6
2005-06-23 12:11:58 51°20.239 2°43.43 126.6 13.5 118 29.4
2005-06-23 12:12:58 51°20.134 2°43.745 128.2 13.4 118 28.8
2005-06-23 12:13:58 51°20.026 2°44.058 128.5 13.5 119 27.8
2005-06-23 12:14:58 51°19.919 2°44.373 127.8 13.5 118 27.4
2005-06-23 12:15:58 51°19.81 2°44.69 128.5 13.6 118 25.7
2005-06-23 12:16:58 51°19.709 2°45.018 124.8 13.8 116 24
2005-06-23 12:17:58 51°19.607 2°45.351 125.7 14.1 116 15.5
2005-06-23 12:18:58 51°19.498 2°45.691 125.4 14.4 119 16.5
2005-06-23 12:19:58 51°19.394 2°46.028 124.2 13.8 116 20.6
2005-06-23 12:20:58 51°19.292 2°46.357 125.2 13.8 116 23.5
2005-06-23 12:21:58 51°19.191 2°46.687 124.4 13.8 116 24.2
2005-06-23 12:22:58 51°19.088 2°47.015 125.6 13.9 117 23.8
2005-06-23 12:23:57 51°18.986 2°47.344 124.9 13.9 116 22.4
2005-06-23 12:24:58 51°18.885 2°47.679 124.9 13.9 116 21.2
2005-06-23 12:25:58 51°18.782 2°48.01 124.9 14 117 18.6
2005-06-23 12:26:58 51°18.678 2°48.342 125.2 14 116 16.4
2005-06-23 12:27:58 51°18.573 2°48.675 125.2 13.9 117 13.4
2005-06-23 12:28:58 51°18.466 2°49.01 125.5 14.2 117 13.9
2005-06-23 12:29:58 51°18.371 2°49.357 121.3 14.3 113 14.5
2005-06-23 12:30:58 51°18.278 2°49.705 122.1 14.2 113 16.3
2005-06-23 12:31:57 51°18.181 2°50.028 125.7 13.7 117 17
2005-06-23 12:32:58 51°18.076 2°50.359 125.5 13.8 117 16.6
2005-06-23 12:33:58 51°17.972 2°50.686 125.1 13.9 117 15.8
2005-06-23 12:34:58 51°17.867 2°51.017 125.2 14 116 14.5
2005-06-23 12:35:58 51°17.764 2°51.35 125.2 14 116 13.3
2005-06-23 12:36:58 51°17.655 2°51.677 129.8 14 119 13
2005-06-23 12:37:58 51°17.522 2°51.972 139.4 13.5 133 13.4
2005-06-23 12:38:58 51°17.334 2°52.139 168 12.8 160 13.6
2005-06-23 12:39:58 51°17.134 2°52.257 168.9 12.9 160 13.4
2005-06-23 12:40:58 51°16.933 2°52.379 167.5 12.9 158 12.7
2005-06-23 12:41:57 51°16.737 2°52.517 165.2 13 156 12.9
2005-06-23 12:42:57 51°16.541 2°52.654 164.8 12.8 156 14.5
2005-06-23 12:43:58 51°16.346 2°52.793 164.8 12.7 156 15.2
2005-06-23 12:44:58 51°16.151 2°52.932 164 12.9 156 15.1
2005-06-23 12:45:58 51°15.954 2°53.076 164 13 155 14.9
2005-06-23 12:46:57 51°15.76 2°53.215 164.9 12.9 156 14.4
2005-06-23 12:47:58 51°15.562 2°53.354 165.1 12.8 156 14
2005-06-23 12:48:57 51°15.368 2°53.496 164.5 12.9 156 13.4
2005-06-23 12:49:58 51°15.187 2°53.7 149.8 13.3 139 12.8
2005-06-23 12:50:58 51°15.017 2°53.925 150.7 13.3 141 12.3
2005-06-23 12:51:58 51°14.842 2°54.138 151.7 13.2 144 12.4
2005-06-23 12:52:58 51°14.669 2°54.359 152.6 13.4 141 13.1
2005-06-23 12:53:57 51°14.516 2°54.6 134.1 12 121 13.6
2005-06-23 12:54:58 51°14.436 2°54.866 126 10.5 115 13.6
2005-06-23 12:55:58 51°14.357 2°55.092 132.8 9.7 121 13.9
2005-06-23 12:56:58 51°14.25 2°55.288 135.4 9.6 132 13.9
2005-06-23 12:57:57 51°14.139 2°55.409 155.6 8.3 154 13.6
2005-06-23 12:58:57 51°14.019 2°55.493 158.2 7.6 156 14
2005-06-23 12:59:57 51°13.892 2°55.585 158.3 8.9 156 12.8
2005-06-23 13:00:58 51°13.767 2°55.694 147.7 7.6 144 12.5
2005-06-23 13:01:58 51°13.701 2°55.809 129.7 4.9 127 13.7
2005-06-23 13:02:58 51°13.656 2°55.901 132.1 4.3 130 12.4
2005-06-23 13:03:58 51°13.617 2°55.985 126.5 3.9 125 12.6
2005-06-23 13:04:58 51°13.597 2°56.068 107.1 3 105 12.6
2005-06-23 13:05:57 51°13.596 2°56.102 103.3 0.9 283 9.5
2005-06-23 13:06:58 51°13.597 2°56.108 113.6 0.3 72 -999